Time;durP1;ratioP1;P1;durP2;ratioP2;P2;SDS_P1;SDS_P2;PMS_P1;PMS_P2;Temp;Humidity;BMP_temperature;BMP_pressure;BME280_temperature;BME280_humidity;BME280_pressure;Samples;Min_cycle;Max_cycle;Signal;HPM_P1;HPM_P2
2022/04/24 00:00:08;;;;;;;11.05;8.32;;;;;;;;;;5065992;28;20048;-65
2022/04/24 00:02:35;;;;;;;12.52;8.27;;;;;;;;;;5067918;28;20040;-65
2022/04/24 00:05:01;;;;;;;12.07;8.63;;;;;;;;;;5066516;28;20135;-65
2022/04/24 00:07:27;;;;;;;10.40;8.45;;;;;;;;;;5067114;28;20548;-65
2022/04/24 00:09:53;;;;;;;12.88;8.77;;;;;;;;;;5066408;28;20036;-64
2022/04/24 00:12:20;;;;;;;11.18;8.80;;;;;;;;;;5064744;28;20036;-64
2022/04/24 00:14:47;;;;;;;11.25;8.55;;;;;;;;;;5066993;28;20052;-65
2022/04/24 00:17:15;;;;;;;11.90;8.23;;;;;;;;;;5067871;28;20611;-65
2022/04/24 00:19:41;;;;;;;10.00;8.70;;;;;;;;;;5065347;28;20127;-65
2022/04/24 00:22:07;;;;;;;10.52;8.48;;;;;;;;;;5067703;28;21434;-65
2022/04/24 00:24:33;;;;;;;10.82;8.15;;;;;;;;;;5066135;28;20048;-65
2022/04/24 00:27:00;;;;;;;13.25;8.30;;;;;;;;;;5067638;28;20036;-65
2022/04/24 00:29:26;;;;;;;10.98;8.07;;;;;;;;;;5064767;28;20043;-65
2022/04/24 00:31:52;;;;;;;12.13;8.32;;;;;;;;;;5067214;28;20052;-65
2022/04/24 00:34:18;;;;;;;11.98;8.18;;;;;;;;;;5066361;28;20081;-64
2022/04/24 00:36:45;;;;;;;10.88;8.45;;;;;;;;;;5066260;28;20039;-65
2022/04/24 00:39:12;;;;;;;9.43;7.68;;;;;;;;;;5065043;28;20064;-65
2022/04/24 00:41:45;;;;;;;10.82;7.43;;;;;;;;;;5066030;28;20044;-65
2022/04/24 00:44:11;;;;;;;9.75;7.80;;;;;;;;;;5064796;28;20036;-65
2022/04/24 00:46:56;;;;;;;10.45;7.50;;;;;;;;;;5064873;28;20540;-65
2022/04/24 00:49:22;;;;;;;13.48;8.00;;;;;;;;;;5065305;28;20079;-65
2022/04/24 00:51:48;;;;;;;8.80;6.88;;;;;;;;;;5065770;28;20052;-65
2022/04/24 00:54:15;;;;;;;10.90;7.68;;;;;;;;;;5065491;28;20052;-65
2022/04/24 00:56:42;;;;;;;9.40;7.82;;;;;;;;;;5066946;28;20051;-65
2022/04/24 00:59:09;;;;;;;12.48;7.93;;;;;;;;;;5065579;28;20080;-65
2022/04/24 01:01:36;;;;;;;10.75;7.50;;;;;;;;;;5065798;28;20071;-65
2022/04/24 01:04:02;;;;;;;10.00;7.57;;;;;;;;;;5065378;28;20548;-65
2022/04/24 01:06:30;;;;;;;8.85;7.15;;;;;;;;;;5065697;28;20044;-65
2022/04/24 01:08:56;;;;;;;9.10;6.82;;;;;;;;;;5065300;28;20048;-65
2022/04/24 01:11:22;;;;;;;10.10;7.40;;;;;;;;;;5064803;28;20970;-64
2022/04/24 01:13:48;;;;;;;9.98;7.57;;;;;;;;;;5064543;28;20052;-64
2022/04/24 01:16:14;;;;;;;9.57;7.57;;;;;;;;;;5065954;28;20032;-64
2022/04/24 01:18:41;;;;;;;11.82;7.47;;;;;;;;;;5063992;28;20477;-65
2022/04/24 01:21:10;;;;;;;11.35;7.70;;;;;;;;;;5064877;28;20040;-65
2022/04/24 01:23:38;;;;;;;9.82;7.18;;;;;;;;;;5065087;28;20238;-65
2022/04/24 01:26:05;;;;;;;9.75;6.97;;;;;;;;;;5064578;28;20085;-64
2022/04/24 01:28:32;;;;;;;10.57;7.15;;;;;;;;;;5065928;28;20040;-65
2022/04/24 01:30:58;;;;;;;9.80;7.53;;;;;;;;;;5065782;28;20040;-65
2022/04/24 01:33:24;;;;;;;9.55;7.20;;;;;;;;;;5064188;28;20044;-65
2022/04/24 01:35:50;;;;;;;8.63;6.95;;;;;;;;;;5064652;28;20032;-65
2022/04/24 01:38:16;;;;;;;9.27;7.20;;;;;;;;;;5047068;28;20179;-65
2022/04/24 01:40:42;;;;;;;10.57;7.18;;;;;;;;;;5064871;28;20049;-64
2022/04/24 01:43:08;;;;;;;10.48;7.10;;;;;;;;;;5065432;28;20040;-64
2022/04/24 01:45:34;;;;;;;9.70;6.78;;;;;;;;;;5063815;28;20046;-64
2022/04/24 01:48:00;;;;;;;12.07;7.40;;;;;;;;;;5064654;28;20416;-64
2022/04/24 01:50:26;;;;;;;9.63;6.40;;;;;;;;;;5063109;28;20052;-64
2022/04/24 01:52:52;;;;;;;9.55;6.78;;;;;;;;;;5064545;28;20044;-64
2022/04/24 01:55:19;;;;;;;9.90;7.13;;;;;;;;;;5063807;28;20040;-64
2022/04/24 01:57:45;;;;;;;8.88;6.95;;;;;;;;;;5066043;28;20044;-65
2022/04/24 02:00:11;;;;;;;10.50;7.15;;;;;;;;;;5063483;28;20040;-64
2022/04/24 02:02:37;;;;;;;11.25;7.30;;;;;;;;;;5066845;28;20041;-64
2022/04/24 02:05:03;;;;;;;10.63;7.43;;;;;;;;;;5066632;28;20051;-65
2022/04/24 02:07:30;;;;;;;11.82;6.43;;;;;;;;;;5048800;28;20473;-65
2022/04/24 02:09:56;;;;;;;8.77;6.63;;;;;;;;;;5063469;28;20044;-65
2022/04/24 02:12:22;;;;;;;9.07;7.15;;;;;;;;;;5065971;28;20048;-65
2022/04/24 02:14:48;;;;;;;9.85;6.63;;;;;;;;;;5066165;28;20070;-65
2022/04/24 02:17:14;;;;;;;11.40;6.28;;;;;;;;;;5066346;28;20433;-64
2022/04/24 02:19:40;;;;;;;9.25;7.47;;;;;;;;;;5064903;28;20456;-65
2022/04/24 02:22:06;;;;;;;10.30;6.82;;;;;;;;;;5065691;28;20029;-65
2022/04/24 02:24:32;;;;;;;9.80;7.30;;;;;;;;;;5064527;28;20056;-64
2022/04/24 02:26:58;;;;;;;9.02;6.65;;;;;;;;;;5065848;28;20105;-65
2022/04/24 02:29:27;;;;;;;9.98;6.70;;;;;;;;;;5064046;28;20071;-65
2022/04/24 02:31:53;;;;;;;9.88;6.55;;;;;;;;;;5065455;28;20564;-65
2022/04/24 02:34:19;;;;;;;8.70;7.25;;;;;;;;;;5074317;28;20040;-64
2022/04/24 02:36:45;;;;;;;10.95;7.18;;;;;;;;;;5070045;28;20032;-65
2022/04/24 02:39:11;;;;;;;10.48;7.10;;;;;;;;;;5069559;28;20212;-65
2022/04/24 02:41:37;;;;;;;11.23;6.80;;;;;;;;;;5070425;28;20054;-64
2022/04/24 02:44:04;;;;;;;9.52;7.28;;;;;;;;;;5070692;28;20067;-64
2022/04/24 02:46:30;;;;;;;8.63;7.15;;;;;;;;;;5071701;28;20042;-64
2022/04/24 02:48:56;;;;;;;9.43;6.70;;;;;;;;;;5070871;28;20694;-64
2022/04/24 02:51:22;;;;;;;12.65;6.88;;;;;;;;;;5071069;28;20080;-64
2022/04/24 02:53:48;;;;;;;10.77;7.15;;;;;;;;;;5069905;28;20036;-64
2022/04/24 02:56:14;;;;;;;8.95;7.25;;;;;;;;;;5072654;28;20040;-64
2022/04/24 02:58:40;;;;;;;8.20;6.68;;;;;;;;;;5070540;28;20110;-64
2022/04/24 03:01:08;;;;;;;9.15;7.07;;;;;;;;;;5070600;28;20047;-64
2022/04/24 03:03:34;;;;;;;10.90;7.68;;;;;;;;;;5072376;28;20405;-64
2022/04/24 03:06:00;;;;;;;10.23;7.38;;;;;;;;;;5073333;28;20044;-64
2022/04/24 03:08:27;;;;;;;9.15;6.43;;;;;;;;;;5070592;28;20044;-64
2022/04/24 03:10:53;;;;;;;8.45;6.85;;;;;;;;;;5070516;28;21436;-64
2022/04/24 03:13:19;;;;;;;8.60;6.57;;;;;;;;;;5073221;28;20131;-65
2022/04/24 03:15:45;;;;;;;8.70;7.35;;;;;;;;;;5071667;28;20041;-64
2022/04/24 03:18:11;;;;;;;10.00;6.88;;;;;;;;;;5071454;28;20051;-64
2022/04/24 03:20:37;;;;;;;10.05;6.75;;;;;;;;;;5073131;28;20032;-64
2022/04/24 03:23:03;;;;;;;8.98;7.10;;;;;;;;;;5072856;28;20044;-64
2022/04/24 03:25:29;;;;;;;8.23;7.07;;;;;;;;;;5072193;28;20044;-64
2022/04/24 03:27:55;;;;;;;10.13;7.07;;;;;;;;;;5071100;28;21037;-64
2022/04/24 03:30:22;;;;;;;10.73;7.18;;;;;;;;;;5070930;28;20040;-64
2022/04/24 03:32:48;;;;;;;8.60;6.88;;;;;;;;;;5072873;28;20063;-64
2022/04/24 03:35:14;;;;;;;8.50;6.72;;;;;;;;;;5071254;28;20037;-64
2022/04/24 03:37:42;;;;;;;9.90;6.88;;;;;;;;;;5071821;28;20083;-65
2022/04/24 03:40:08;;;;;;;10.05;7.30;;;;;;;;;;5070690;28;20033;-64
2022/04/24 03:42:35;;;;;;;8.70;7.07;;;;;;;;;;5070298;28;20044;-64
2022/04/24 03:45:01;;;;;;;11.95;7.25;;;;;;;;;;5072311;28;20079;-64
2022/04/24 03:47:28;;;;;;;10.40;7.22;;;;;;;;;;5069203;28;20037;-64
2022/04/24 03:49:54;;;;;;;9.20;6.80;;;;;;;;;;5069129;28;20102;-64
2022/04/24 03:52:20;;;;;;;10.77;7.13;;;;;;;;;;5050137;28;20040;-64
2022/04/24 03:54:46;;;;;;;8.48;6.90;;;;;;;;;;5068521;28;20096;-64
2022/04/24 03:57:13;;;;;;;9.05;7.18;;;;;;;;;;5069189;28;20166;-64
2022/04/24 03:59:39;;;;;;;8.40;6.63;;;;;;;;;;5068794;28;20045;-65
2022/04/24 04:02:06;;;;;;;9.10;6.78;;;;;;;;;;5068242;28;20032;-64
2022/04/24 04:04:33;;;;;;;8.93;7.03;;;;;;;;;;5067862;28;20115;-64
2022/04/24 04:06:59;;;;;;;11.25;7.05;;;;;;;;;;5068125;28;20055;-64
2022/04/24 04:09:25;;;;;;;10.40;7.38;;;;;;;;;;5067216;28;20047;-64
2022/04/24 04:11:51;;;;;;;7.88;6.45;;;;;;;;;;5068860;28;20116;-64
2022/04/24 04:14:18;;;;;;;7.70;6.53;;;;;;;;;;5068819;28;20051;-64
2022/04/24 04:16:44;;;;;;;9.23;7.00;;;;;;;;;;5068764;28;20036;-64
2022/04/24 04:19:10;;;;;;;11.85;7.43;;;;;;;;;;5068021;28;20040;-64
2022/04/24 04:21:36;;;;;;;9.20;6.72;;;;;;;;;;5068077;28;20108;-64
2022/04/24 04:24:02;;;;;;;11.32;7.72;;;;;;;;;;5067588;28;20096;-64
2022/04/24 04:26:28;;;;;;;9.75;7.63;;;;;;;;;;5066472;28;20044;-64
2022/04/24 04:28:55;;;;;;;8.75;7.22;;;;;;;;;;5080251;28;20045;-64
2022/04/24 04:31:21;;;;;;;10.43;7.47;;;;;;;;;;5068149;28;20189;-64
2022/04/24 04:33:47;;;;;;;8.77;6.95;;;;;;;;;;5068030;28;20045;-64
2022/04/24 04:36:13;;;;;;;10.50;7.68;;;;;;;;;;5066173;28;20377;-64
2022/04/24 04:38:39;;;;;;;8.13;7.07;;;;;;;;;;5068064;28;20370;-64
2022/04/24 04:41:05;;;;;;;10.93;6.90;;;;;;;;;;5067835;28;20079;-64
2022/04/24 04:43:31;;;;;;;7.80;6.57;;;;;;;;;;5066478;28;20049;-64
2022/04/24 04:45:57;;;;;;;8.75;7.00;;;;;;;;;;5067951;28;20049;-64
2022/04/24 04:48:24;;;;;;;10.07;7.30;;;;;;;;;;5066733;28;20037;-64
2022/04/24 04:50:50;;;;;;;9.63;7.00;;;;;;;;;;5067746;28;20036;-64
2022/04/24 04:53:16;;;;;;;8.70;6.63;;;;;;;;;;5066181;28;20166;-65
2022/04/24 04:55:42;;;;;;;7.93;6.40;;;;;;;;;;5066154;28;20048;-64
2022/04/24 04:58:08;;;;;;;9.20;7.00;;;;;;;;;;5065407;28;20028;-64
2022/04/24 05:00:34;;;;;;;8.63;7.07;;;;;;;;;;5064420;28;20123;-64
2022/04/24 05:03:00;;;;;;;9.75;6.78;;;;;;;;;;5068168;28;20041;-65
2022/04/24 05:05:26;;;;;;;8.70;6.90;;;;;;;;;;5067470;28;20052;-64
2022/04/24 05:07:52;;;;;;;10.05;7.43;;;;;;;;;;5067437;28;20041;-64
2022/04/24 05:10:19;;;;;;;10.30;7.30;;;;;;;;;;5064812;28;20040;-64
2022/04/24 05:12:45;;;;;;;9.32;7.45;;;;;;;;;;5065011;28;20048;-64
2022/04/24 05:15:13;;;;;;;10.00;7.63;;;;;;;;;;5065582;28;20053;-64
2022/04/24 05:17:40;;;;;;;14.45;7.10;;;;;;;;;;5064794;28;20040;-64
2022/04/24 05:20:07;;;;;;;9.75;6.68;;;;;;;;;;5067591;28;20055;-64
2022/04/24 05:22:33;;;;;;;10.13;7.43;;;;;;;;;;5067375;28;20036;-64
2022/04/24 05:25:00;;;;;;;9.38;7.30;;;;;;;;;;5049148;28;20044;-64
2022/04/24 05:27:26;;;;;;;10.57;7.88;;;;;;;;;;5065254;28;20071;-64
2022/04/24 05:29:52;;;;;;;10.40;7.03;;;;;;;;;;5065795;28;20036;-64
2022/04/24 05:32:18;;;;;;;8.15;6.90;;;;;;;;;;5065380;28;20051;-64
2022/04/24 05:34:45;;;;;;;9.32;7.07;;;;;;;;;;5064359;28;20048;-64
2022/04/24 05:37:11;;;;;;;9.27;7.22;;;;;;;;;;5067341;28;20381;-64
2022/04/24 05:39:37;;;;;;;10.73;7.53;;;;;;;;;;5065330;28;20060;-64
2022/04/24 05:42:04;;;;;;;10.23;7.22;;;;;;;;;;5066867;28;20071;-64
2022/04/24 05:44:30;;;;;;;11.00;7.13;;;;;;;;;;5066219;28;20042;-64
2022/04/24 05:46:56;;;;;;;11.45;7.10;;;;;;;;;;5065475;28;20393;-64
2022/04/24 05:49:22;;;;;;;8.02;6.65;;;;;;;;;;5066305;28;20131;-64
2022/04/24 05:51:48;;;;;;;11.52;7.00;;;;;;;;;;5065233;28;20040;-64
2022/04/24 05:54:15;;;;;;;9.82;7.20;;;;;;;;;;5066853;28;20036;-65
2022/04/24 05:56:42;;;;;;;9.27;6.90;;;;;;;;;;5065592;28;20457;-64
2022/04/24 05:59:11;;;;;;;8.88;6.72;;;;;;;;;;5065698;28;20052;-64
2022/04/24 06:01:37;;;;;;;8.15;6.55;;;;;;;;;;5064767;28;20048;-64
2022/04/24 06:04:03;;;;;;;11.45;6.43;;;;;;;;;;5066689;28;20081;-64
2022/04/24 06:06:31;;;;;;;9.43;6.45;;;;;;;;;;5065491;28;20051;-65
2022/04/24 06:08:57;;;;;;;11.00;6.55;;;;;;;;;;5063186;28;20486;-64
2022/04/24 06:11:23;;;;;;;7.72;6.07;;;;;;;;;;5065420;28;20384;-65
2022/04/24 06:13:49;;;;;;;11.93;6.68;;;;;;;;;;5064880;28;20521;-64
2022/04/24 06:16:15;;;;;;;9.68;6.38;;;;;;;;;;5065595;28;20531;-64
2022/04/24 06:18:41;;;;;;;10.00;6.00;;;;;;;;;;5065316;28;20041;-65
2022/04/24 06:21:07;;;;;;;8.52;6.45;;;;;;;;;;5064367;28;20053;-65
2022/04/24 06:23:33;;;;;;;10.02;6.13;;;;;;;;;;5065346;28;20044;-65
2022/04/24 06:25:59;;;;;;;8.18;6.15;;;;;;;;;;5063541;28;20158;-64
2022/04/24 06:28:26;;;;;;;10.05;6.32;;;;;;;;;;5065653;28;20048;-64
2022/04/24 06:30:52;;;;;;;8.20;6.22;;;;;;;;;;5064653;28;20032;-65
2022/04/24 06:33:18;;;;;;;8.32;6.15;;;;;;;;;;5066079;28;20043;-64
2022/04/24 06:35:47;;;;;;;7.53;5.47;;;;;;;;;;5065414;28;20052;-64
2022/04/24 06:38:13;;;;;;;11.38;5.90;;;;;;;;;;5064404;28;20098;-64
2022/04/24 06:40:39;;;;;;;11.93;6.80;;;;;;;;;;5065581;28;20055;-64
2022/04/24 06:43:06;;;;;;;9.82;6.75;;;;;;;;;;5063687;28;20055;-65
2022/04/24 06:45:32;;;;;;;13.43;6.07;;;;;;;;;;5066279;28;20125;-64
2022/04/24 06:48:12;;;;;;;9.95;6.28;;;;;;;;;;5065136;28;20758;-65
2022/04/24 06:50:39;;;;;;;12.32;6.75;;;;;;;;;;5065467;28;20067;-64
2022/04/24 06:53:05;;;;;;;8.52;6.38;;;;;;;;;;5065585;28;20066;-65
2022/04/24 06:55:32;;;;;;;8.93;6.15;;;;;;;;;;5064294;28;20055;-64
2022/04/24 06:57:58;;;;;;;7.70;6.15;;;;;;;;;;5078348;28;20055;-65
2022/04/24 07:00:25;;;;;;;8.98;6.15;;;;;;;;;;5064517;28;20044;-65
2022/04/24 07:02:51;;;;;;;10.50;6.57;;;;;;;;;;5063801;28;20393;-65
2022/04/24 07:05:19;;;;;;;11.57;6.57;;;;;;;;;;5065559;28;20116;-65
2022/04/24 07:07:45;;;;;;;9.18;6.45;;;;;;;;;;5064342;28;21795;-64
2022/04/24 07:10:12;;;;;;;9.32;6.10;;;;;;;;;;5065080;28;21778;-65
2022/04/24 07:12:48;;;;;;;8.63;6.20;;;;;;;;;;5075435;28;20036;-65
2022/04/24 07:15:14;;;;;;;16.60;6.65;;;;;;;;;;5063795;28;20512;-65
2022/04/24 07:17:44;;;;;;;8.02;6.13;;;;;;;;;;5063451;28;20415;-65
2022/04/24 07:20:11;;;;;;;12.73;6.10;;;;;;;;;;5064611;28;20477;-65
2022/04/24 07:22:47;;;;;;;7.75;5.93;;;;;;;;;;5065633;28;20044;-65
2022/04/24 07:25:17;;;;;;;8.95;6.40;;;;;;;;;;5068175;28;20484;-65
2022/04/24 07:27:43;;;;;;;8.95;6.53;;;;;;;;;;5068966;28;20045;-65
2022/04/24 07:30:13;;;;;;;8.43;6.22;;;;;;;;;;5069262;28;20043;-65
2022/04/24 07:32:52;;;;;;;9.98;6.25;;;;;;;;;;5069246;28;20130;-65
2022/04/24 07:35:19;;;;;;;10.57;7.10;;;;;;;;;;5069134;28;20089;-65
2022/04/24 07:37:46;;;;;;;8.98;6.38;;;;;;;;;;5068366;28;20121;-65
2022/04/24 07:40:13;;;;;;;8.57;6.18;;;;;;;;;;5067591;28;20053;-65
2022/04/24 07:42:45;;;;;;;9.07;6.20;;;;;;;;;;5069501;28;20036;-65
2022/04/24 07:45:11;;;;;;;9.63;6.70;;;;;;;;;;5050629;28;20049;-65
2022/04/24 07:47:37;;;;;;;8.23;6.18;;;;;;;;;;5068044;28;20745;-65
2022/04/24 07:50:04;;;;;;;8.38;6.15;;;;;;;;;;5066654;28;20090;-65
2022/04/24 07:52:30;;;;;;;7.75;6.10;;;;;;;;;;5069007;28;20048;-65
2022/04/24 07:54:56;;;;;;;8.98;6.65;;;;;;;;;;5067801;28;20135;-65
2022/04/24 07:57:22;;;;;;;9.43;6.22;;;;;;;;;;5067850;28;20526;-65
2022/04/24 07:59:48;;;;;;;10.40;6.70;;;;;;;;;;5068738;28;20040;-65
2022/04/24 08:02:14;;;;;;;8.25;6.40;;;;;;;;;;5068419;28;20329;-65
2022/04/24 08:04:40;;;;;;;9.85;6.70;;;;;;;;;;5067117;28;20055;-65
2022/04/24 08:07:07;;;;;;;9.75;6.13;;;;;;;;;;5065460;28;20086;-65
2022/04/24 08:09:33;;;;;;;9.50;6.18;;;;;;;;;;5068162;28;20033;-65
2022/04/24 08:11:59;;;;;;;7.85;5.70;;;;;;;;;;5068344;28;20036;-65
2022/04/24 08:14:25;;;;;;;10.02;6.80;;;;;;;;;;5068241;28;20542;-65
2022/04/24 08:16:51;;;;;;;11.48;6.35;;;;;;;;;;5068935;28;20086;-65
2022/04/24 08:19:18;;;;;;;8.10;6.03;;;;;;;;;;5067201;28;20044;-65
2022/04/24 08:21:44;;;;;;;10.70;6.22;;;;;;;;;;5068562;28;20082;-65
2022/04/24 08:24:10;;;;;;;9.95;6.03;;;;;;;;;;5066775;28;20158;-65
2022/04/24 08:26:37;;;;;;;8.23;5.85;;;;;;;;;;5067404;28;20051;-65
2022/04/24 08:29:03;;;;;;;10.02;5.78;;;;;;;;;;5068515;28;20126;-65
2022/04/24 08:31:29;;;;;;;8.43;5.88;;;;;;;;;;5067573;28;20101;-65
2022/04/24 08:33:57;;;;;;;11.23;5.82;;;;;;;;;;5066359;28;20048;-65
2022/04/24 08:36:24;;;;;;;9.88;5.50;;;;;;;;;;5066903;28;20366;-65
2022/04/24 08:38:50;;;;;;;9.38;5.53;;;;;;;;;;5067363;28;20370;-65
2022/04/24 08:41:22;;;;;;;6.88;5.18;;;;;;;;;;5066541;28;20044;-65
2022/04/24 08:43:48;;;;;;;6.75;4.90;;;;;;;;;;5068773;28;20048;-65
2022/04/24 08:46:14;;;;;;;7.20;4.50;;;;;;;;;;5066854;28;20059;-65
2022/04/24 08:48:45;;;;;;;7.85;4.82;;;;;;;;;;5067842;28;20049;-65
2022/04/24 08:51:11;;;;;;;8.10;4.70;;;;;;;;;;5068019;28;20074;-65
2022/04/24 08:53:39;;;;;;;7.20;4.35;;;;;;;;;;5066446;28;20561;-65
2022/04/24 08:56:05;;;;;;;5.85;4.63;;;;;;;;;;5068152;28;20052;-65
2022/04/24 08:58:32;;;;;;;7.03;4.20;;;;;;;;;;5066419;28;20036;-65
2022/04/24 09:00:58;;;;;;;8.63;4.60;;;;;;;;;;5066654;28;20477;-65
2022/04/24 09:03:24;;;;;;;8.13;4.50;;;;;;;;;;5066819;28;20520;-65
2022/04/24 09:05:50;;;;;;;12.75;4.28;;;;;;;;;;5068270;28;21484;-65
2022/04/24 09:08:16;;;;;;;6.30;4.55;;;;;;;;;;5067900;28;20132;-65
2022/04/24 09:10:51;;;;;;;6.70;3.83;;;;;;;;;;5065991;28;20036;-65
2022/04/24 09:16:18;;;;;;;4.82;3.80;;;;;;;;;;5064667;28;20051;-65
2022/04/24 09:18:46;;;;;;;6.10;3.80;;;;;;;;;;5067187;28;20062;-65
2022/04/24 09:21:13;;;;;;;4.75;3.38;;;;;;;;;;5066370;28;20047;-65
2022/04/24 09:23:42;;;;;;;5.45;3.60;;;;;;;;;;5067592;28;20119;-66
2022/04/24 09:26:13;;;;;;;9.93;4.10;;;;;;;;;;5064767;28;20119;-65
2022/04/24 09:28:40;;;;;;;7.32;3.53;;;;;;;;;;5068007;28;20760;-65
2022/04/24 09:31:07;;;;;;;5.30;3.70;;;;;;;;;;5065839;28;20043;-65
2022/04/24 09:33:37;;;;;;;4.60;3.38;;;;;;;;;;5064521;28;20054;-65
2022/04/24 09:36:03;;;;;;;8.20;4.03;;;;;;;;;;5065233;28;20048;-66
2022/04/24 09:38:29;;;;;;;5.82;3.30;;;;;;;;;;5065885;28;20054;-65
2022/04/24 09:40:55;;;;;;;5.97;3.28;;;;;;;;;;5064647;28;20049;-65
2022/04/24 09:43:22;;;;;;;6.43;3.10;;;;;;;;;;5063890;28;20048;-65
2022/04/24 09:45:54;;;;;;;8.77;3.30;;;;;;;;;;5064820;28;20033;-66
2022/04/24 09:48:20;;;;;;;4.03;2.35;;;;;;;;;;5064692;28;20051;-65
2022/04/24 09:50:48;;;;;;;3.28;2.30;;;;;;;;;;5066041;28;20058;-65
2022/04/24 09:53:15;;;;;;;5.45;2.80;;;;;;;;;;5064722;28;20556;-65
2022/04/24 09:55:43;;;;;;;4.13;2.60;;;;;;;;;;5066235;28;20048;-65
2022/04/24 09:58:09;;;;;;;4.88;2.58;;;;;;;;;;5064505;28;20045;-65
2022/04/24 10:00:36;;;;;;;5.40;2.33;;;;;;;;;;5064257;28;20040;-65
2022/04/24 10:03:02;;;;;;;4.80;2.80;;;;;;;;;;5064568;28;20041;-65
2022/04/24 10:05:29;;;;;;;4.53;2.83;;;;;;;;;;5064482;28;21073;-65
2022/04/24 10:07:56;;;;;;;4.35;2.67;;;;;;;;;;5066524;28;20090;-65
2022/04/24 10:10:22;;;;;;;4.35;2.65;;;;;;;;;;5063613;28;20057;-65
2022/04/24 10:12:50;;;;;;;4.40;2.60;;;;;;;;;;5065129;28;20072;-65
2022/04/24 10:15:17;;;;;;;5.32;2.80;;;;;;;;;;5063981;28;20049;-65
2022/04/24 10:17:43;;;;;;;8.55;2.72;;;;;;;;;;5065776;28;20035;-65
2022/04/24 10:20:16;;;;;;;4.10;2.90;;;;;;;;;;5064540;28;20040;-65
2022/04/24 10:22:53;;;;;;;4.25;2.70;;;;;;;;;;5062883;28;20096;-65
2022/04/24 10:25:29;;;;;;;5.75;2.90;;;;;;;;;;5080008;28;20072;-65
2022/04/24 10:27:55;;;;;;;5.28;2.85;;;;;;;;;;5064426;28;20123;-66
2022/04/24 10:30:25;;;;;;;8.80;2.80;;;;;;;;;;5064554;28;20086;-65
2022/04/24 10:33:10;;;;;;;5.10;2.83;;;;;;;;;;5064070;28;20053;-65
2022/04/24 10:35:45;;;;;;;5.77;2.70;;;;;;;;;;5062173;28;20510;-65
2022/04/24 10:38:11;;;;;;;3.92;2.90;;;;;;;;;;5062626;28;20326;-65
2022/04/24 10:40:39;;;;;;;5.05;2.60;;;;;;;;;;5076069;28;20056;-65
2022/04/24 10:43:10;;;;;;;5.78;2.80;;;;;;;;;;5048734;28;20055;-65
2022/04/24 10:45:46;;;;;;;8.70;2.72;;;;;;;;;;5064863;28;20064;-65
2022/04/24 10:48:17;;;;;;;5.97;3.45;;;;;;;;;;5064461;28;20067;-65
2022/04/24 10:50:50;;;;;;;5.88;3.10;;;;;;;;;;5064006;28;20055;-65
2022/04/24 10:53:17;;;;;;;5.13;2.97;;;;;;;;;;5047303;28;20079;-65
2022/04/24 10:55:43;;;;;;;6.38;2.97;;;;;;;;;;5064302;28;20051;-66
2022/04/24 10:58:10;;;;;;;4.97;3.22;;;;;;;;;;5068547;28;20047;-65
2022/04/24 11:00:37;;;;;;;5.38;3.33;;;;;;;;;;5066455;28;20045;-65
2022/04/24 11:03:09;;;;;;;6.15;2.97;;;;;;;;;;5069845;28;20039;-65
2022/04/24 11:05:39;;;;;;;4.20;2.85;;;;;;;;;;5067908;28;20067;-65
2022/04/24 11:08:06;;;;;;;4.65;2.70;;;;;;;;;;5068224;28;20051;-65
2022/04/24 11:10:42;;;;;;;5.65;2.45;;;;;;;;;;5069851;28;20062;-65
2022/04/24 11:13:12;;;;;;;6.35;2.75;;;;;;;;;;5068503;28;20052;-66
2022/04/24 11:15:44;;;;;;;5.78;2.60;;;;;;;;;;5067771;28;20051;-65
2022/04/24 11:18:36;;;;;;;5.90;2.90;;;;;;;;;;5069315;28;20032;-65
2022/04/24 11:21:04;;;;;;;4.85;2.42;;;;;;;;;;5067330;28;20040;-65
2022/04/24 11:23:40;;;;;;;3.58;2.35;;;;;;;;;;5069164;28;20059;-66
2022/04/24 11:26:08;;;;;;;;;;;;;;;;;;5068286;28;20098;-65
2022/04/24 11:28:38;;;;;;;3.75;2.10;;;;;;;;;;5068932;28;19916;-65
2022/04/24 11:31:14;;;;;;;4.18;2.80;;;;;;;;;;5033851;28;20451;-65
2022/04/24 11:33:51;;;;;;;4.60;2.13;;;;;;;;;;5068589;28;20037;-65
2022/04/24 11:36:17;;;;;;;3.25;1.90;;;;;;;;;;5068007;28;20036;-65
2022/04/24 11:38:46;;;;;;;4.35;2.15;;;;;;;;;;5066476;28;20048;-65
2022/04/24 11:41:15;;;;;;;4.13;1.80;;;;;;;;;;5067751;28;20056;-65
2022/04/24 11:43:41;;;;;;;3.80;2.15;;;;;;;;;;5069982;28;20132;-65
2022/04/24 11:51:37;;;;;;;2.35;1.55;;;;;;;;;;5069451;28;20575;-65
2022/04/24 11:54:03;;;;;;;3.72;1.98;;;;;;;;;;5067604;28;20044;-67
2022/04/24 11:56:32;;;;;;;1.75;1.35;;;;;;;;;;5069476;28;20036;-65
2022/04/24 11:59:12;;;;;;;3.05;1.95;;;;;;;;;;5052165;28;20043;-65
2022/04/24 12:01:38;;;;;;;3.45;1.83;;;;;;;;;;5078202;28;20358;-65
2022/04/24 12:04:05;;;;;;;3.25;2.30;;;;;;;;;;5066432;28;20392;-65
2022/04/24 12:06:32;;;;;;;4.47;2.20;;;;;;;;;;5065061;28;20052;-65
2022/04/24 12:09:05;;;;;;;4.68;1.70;;;;;;;;;;5067645;28;20039;-65
2022/04/24 12:11:32;;;;;;;2.97;2.00;;;;;;;;;;5067359;28;20048;-65
2022/04/24 12:14:02;;;;;;;2.30;1.67;;;;;;;;;;5067486;28;20043;-65
2022/04/24 12:16:28;;;;;;;3.10;1.95;;;;;;;;;;5068703;28;20028;-65
2022/04/24 12:18:55;;;;;;;6.05;1.98;;;;;;;;;;5066058;28;20044;-65
2022/04/24 12:21:21;;;;;;;5.72;2.13;;;;;;;;;;5067621;28;20043;-65
2022/04/24 12:23:51;;;;;;;3.63;2.10;;;;;;;;;;5067765;28;20037;-65
2022/04/24 12:26:17;;;;;;;2.72;2.05;;;;;;;;;;5067644;28;20135;-65
2022/04/24 12:28:43;;;;;;;4.25;2.35;;;;;;;;;;5066673;28;20044;-65
2022/04/24 12:31:20;;;;;;;3.55;1.80;;;;;;;;;;5067931;28;20500;-65
2022/04/24 12:33:47;;;;;;;3.13;1.80;;;;;;;;;;5066827;28;20083;-65
2022/04/24 12:36:14;;;;;;;2.33;1.52;;;;;;;;;;5068167;28;20044;-65
2022/04/24 12:38:40;;;;;;;3.92;1.83;;;;;;;;;;5065343;28;20596;-66
2022/04/24 12:41:11;;;;;;;3.53;2.08;;;;;;;;;;5067386;28;20048;-65
2022/04/24 12:43:37;;;;;;;5.00;2.72;;;;;;;;;;5067140;28;20044;-65
2022/04/24 12:46:05;;;;;;;3.42;2.13;;;;;;;;;;5065495;28;20090;-65
2022/04/24 12:48:31;;;;;;;4.10;2.13;;;;;;;;;;5067933;28;20059;-65
2022/04/24 12:50:57;;;;;;;2.97;2.05;;;;;;;;;;5066388;28;20059;-65
2022/04/24 12:53:23;;;;;;;3.47;1.58;;;;;;;;;;5067818;28;20067;-66
2022/04/24 12:55:51;;;;;;;2.25;1.48;;;;;;;;;;5065422;28;20048;-65
2022/04/24 12:58:18;;;;;;;5.03;2.10;;;;;;;;;;5067857;28;20051;-65
2022/04/24 13:00:45;;;;;;;5.72;2.13;;;;;;;;;;5067795;28;20045;-65
2022/04/24 13:03:15;;;;;;;4.07;1.95;;;;;;;;;;5067802;28;20033;-66
2022/04/24 13:05:42;;;;;;;3.10;2.22;;;;;;;;;;5066306;28;20040;-65
2022/04/24 13:08:08;;;;;;;8.85;2.00;;;;;;;;;;5067570;28;20040;-65
2022/04/24 13:10:35;;;;;;;3.70;1.98;;;;;;;;;;5066068;28;20102;-65
2022/04/24 13:13:01;;;;;;;3.70;1.80;;;;;;;;;;5065676;28;20529;-65
2022/04/24 13:15:33;;;;;;;4.80;2.20;;;;;;;;;;5064920;28;20055;-65
2022/04/24 13:18:09;;;;;;;2.85;1.90;;;;;;;;;;5064882;28;20052;-65
2022/04/24 13:20:40;;;;;;;3.42;2.50;;;;;;;;;;5066441;28;20037;-65
2022/04/24 13:23:07;;;;;;;2.60;2.10;;;;;;;;;;5064461;28;20048;-65
2022/04/24 13:25:36;;;;;;;5.20;2.33;;;;;;;;;;5065665;28;20101;-65
2022/04/24 13:28:03;;;;;;;3.47;2.28;;;;;;;;;;5065205;28;20078;-65
2022/04/24 13:30:29;;;;;;;5.95;2.30;;;;;;;;;;5066301;28;20377;-65
2022/04/24 13:32:56;;;;;;;4.45;2.80;;;;;;;;;;5066773;28;20112;-65
2022/04/24 13:35:22;;;;;;;4.05;2.40;;;;;;;;;;5065686;28;20045;-65
2022/04/24 13:40:33;;;;;;;2.85;2.13;;;;;;;;;;5066985;28;20040;-65
2022/04/24 13:42:59;;;;;;;2.63;2.13;;;;;;;;;;5066740;28;20048;-65
2022/04/24 13:45:26;;;;;;;4.47;2.22;;;;;;;;;;5065841;28;20048;-65
2022/04/24 13:47:55;;;;;;;2.85;2.03;;;;;;;;;;5064696;28;20048;-65
2022/04/24 13:50:21;;;;;;;4.53;2.35;;;;;;;;;;5067374;28;20051;-65
2022/04/24 13:52:48;;;;;;;4.65;2.92;;;;;;;;;;5066576;28;20520;-65
2022/04/24 13:55:15;;;;;;;4.07;2.80;;;;;;;;;;5049002;28;20473;-65
2022/04/24 13:57:42;;;;;;;5.05;2.28;;;;;;;;;;5067155;28;20040;-68
2022/04/24 14:00:10;;;;;;;4.53;2.20;;;;;;;;;;5080962;28;20138;-68
2022/04/24 14:02:40;;;;;;;3.88;2.25;;;;;;;;;;5047632;28;20039;-68
2022/04/24 14:05:07;;;;;;;4.20;2.40;;;;;;;;;;5062179;28;20052;-69
2022/04/24 14:07:33;;;;;;;4.20;2.40;;;;;;;;;;5065821;28;20040;-68
2022/04/24 14:10:00;;;;;;;5.28;2.95;;;;;;;;;;5063570;28;20465;-68
2022/04/24 14:12:26;;;;;;;4.25;2.15;;;;;;;;;;5064531;28;20044;-68
2022/04/24 14:14:52;;;;;;;4.07;2.45;;;;;;;;;;5048410;28;20059;-68
2022/04/24 14:17:18;;;;;;;5.45;2.85;;;;;;;;;;5064445;28;20043;-68
2022/04/24 14:19:44;;;;;;;3.80;2.60;;;;;;;;;;5065527;28;20032;-68
2022/04/24 14:22:10;;;;;;;3.10;2.35;;;;;;;;;;5063843;28;20040;-68
2022/04/24 14:24:36;;;;;;;4.13;2.40;;;;;;;;;;5065453;28;20452;-68
2022/04/24 14:27:02;;;;;;;4.95;2.53;;;;;;;;;;5064917;28;20052;-68
2022/04/24 14:29:28;;;;;;;3.92;2.50;;;;;;;;;;5065124;28;20098;-68
2022/04/24 14:31:55;;;;;;;3.47;2.55;;;;;;;;;;5047980;28;20047;-68
2022/04/24 14:34:21;;;;;;;5.10;2.58;;;;;;;;;;5065249;28;20062;-68
2022/04/24 14:36:47;;;;;;;2.83;2.20;;;;;;;;;;5064066;28;20345;-68
2022/04/24 14:39:13;;;;;;;3.45;2.50;;;;;;;;;;5063345;28;20063;-68
2022/04/24 14:41:40;;;;;;;6.07;2.63;;;;;;;;;;5063607;28;20087;-68
2022/04/24 14:44:06;;;;;;;8.25;2.50;;;;;;;;;;5064726;28;20059;-68
2022/04/24 14:57:32;;;;;;;4.78;2.53;;;;;;;;;;5065933;28;20045;-68
2022/04/24 14:59:59;;;;;;;4.90;2.70;;;;;;;;;;5046820;28;20089;-68
2022/04/24 15:02:26;;;;;;;5.78;2.80;;;;;;;;;;5064487;28;20040;-68